sensor_id;sensor_type;location;lat;lon;timestamp;P1;durP1;ratioP1;P2;durP2;ratioP2
12467;SDS011;57850;52.922;6.256;2022-12-07T00:00:52;6.53;;;2.20;;
12467;SDS011;57850;52.922;6.256;2022-12-07T00:03:18;7.60;;;2.30;;
12467;SDS011;57850;52.922;6.256;2022-12-07T00:05:45;7.77;;;2.53;;
12467;SDS011;57850;52.922;6.256;2022-12-07T00:08:11;10.13;;;2.97;;
12467;SDS011;57850;52.922;6.256;2022-12-07T00:10:39;7.33;;;2.50;;
12467;SDS011;57850;52.922;6.256;2022-12-07T00:13:06;7.37;;;2.83;;
12467;SDS011;57850;52.922;6.256;2022-12-07T00:15:33;5.23;;;2.43;;
12467;SDS011;57850;52.922;6.256;2022-12-07T00:18:00;7.60;;;2.57;;
12467;SDS011;57850;52.922;6.256;2022-12-07T00:20:27;13.53;;;2.30;;
12467;SDS011;57850;52.922;6.256;2022-12-07T00:22:54;9.60;;;2.40;;
12467;SDS011;57850;52.922;6.256;2022-12-07T00:25:20;7.50;;;1.93;;
12467;SDS011;57850;52.922;6.256;2022-12-07T00:27:48;6.60;;;2.23;;
12467;SDS011;57850;52.922;6.256;2022-12-07T00:30:15;6.40;;;2.17;;
12467;SDS011;57850;52.922;6.256;2022-12-07T00:32:41;6.80;;;2.07;;
12467;SDS011;57850;52.922;6.256;2022-12-07T00:35:08;7.03;;;1.77;;
12467;SDS011;57850;52.922;6.256;2022-12-07T00:37:35;7.17;;;2.10;;
12467;SDS011;57850;52.922;6.256;2022-12-07T00:40:02;7.73;;;2.57;;
12467;SDS011;57850;52.922;6.256;2022-12-07T00:42:29;19.23;;;3.03;;
12467;SDS011;57850;52.922;6.256;2022-12-07T00:44:58;11.83;;;1.90;;
12467;SDS011;57850;52.922;6.256;2022-12-07T00:47:25;8.30;;;2.20;;
12467;SDS011;57850;52.922;6.256;2022-12-07T00:49:53;14.63;;;2.93;;
12467;SDS011;57850;52.922;6.256;2022-12-07T00:52:20;16.90;;;4.47;;
12467;SDS011;57850;52.922;6.256;2022-12-07T00:54:47;17.60;;;10.10;;
12467;SDS011;57850;52.922;6.256;2022-12-07T00:57:14;15.47;;;5.50;;
12467;SDS011;57850;52.922;6.256;2022-12-07T00:59:41;12.60;;;2.28;;
12467;SDS011;57850;52.922;6.256;2022-12-07T01:02:09;4.13;;;1.43;;
12467;SDS011;57850;52.922;6.256;2022-12-07T01:04:36;9.00;;;1.30;;
12467;SDS011;57850;52.922;6.256;2022-12-07T01:07:03;4.87;;;1.30;;
12467;SDS011;57850;52.922;6.256;2022-12-07T01:09:30;4.83;;;1.50;;
12467;SDS011;57850;52.922;6.256;2022-12-07T01:11:58;7.27;;;1.60;;
12467;SDS011;57850;52.922;6.256;2022-12-07T01:14:25;4.37;;;1.67;;
12467;SDS011;57850;52.922;6.256;2022-12-07T01:16:52;7.93;;;1.70;;
12467;SDS011;57850;52.922;6.256;2022-12-07T01:19:20;7.17;;;2.00;;
12467;SDS011;57850;52.922;6.256;2022-12-07T01:21:46;4.83;;;1.60;;
12467;SDS011;57850;52.922;6.256;2022-12-07T01:24:13;6.17;;;1.73;;
12467;SDS011;57850;52.922;6.256;2022-12-07T01:26:39;6.07;;;1.43;;
12467;SDS011;57850;52.922;6.256;2022-12-07T01:29:06;5.83;;;1.40;;
12467;SDS011;57850;52.922;6.256;2022-12-07T01:31:33;7.27;;;1.70;;
12467;SDS011;57850;52.922;6.256;2022-12-07T01:33:59;6.50;;;1.40;;
12467;SDS011;57850;52.922;6.256;2022-12-07T01:36:29;7.37;;;1.73;;
12467;SDS011;57850;52.922;6.256;2022-12-07T01:38:58;6.50;;;1.70;;
12467;SDS011;57850;52.922;6.256;2022-12-07T01:41:26;7.40;;;1.57;;
12467;SDS011;57850;52.922;6.256;2022-12-07T01:44:08;10.07;;;2.00;;
12467;SDS011;57850;52.922;6.256;2022-12-07T01:46:55;10.97;;;1.63;;
12467;SDS011;57850;52.922;6.256;2022-12-07T01:49:26;4.27;;;1.27;;
12467;SDS011;57850;52.922;6.256;2022-12-07T01:52:00;10.97;;;1.20;;
12467;SDS011;57850;52.922;6.256;2022-12-07T01:54:33;3.47;;;1.23;;
12467;SDS011;57850;52.922;6.256;2022-12-07T01:57:01;6.00;;;1.53;;
12467;SDS011;57850;52.922;6.256;2022-12-07T01:59:29;7.20;;;1.30;;
12467;SDS011;57850;52.922;6.256;2022-12-07T02:01:56;7.00;;;2.47;;
12467;SDS011;57850;52.922;6.256;2022-12-07T02:04:23;5.87;;;1.63;;
12467;SDS011;57850;52.922;6.256;2022-12-07T02:06:50;6.53;;;1.70;;
12467;SDS011;57850;52.922;6.256;2022-12-07T02:09:20;4.67;;;1.40;;
12467;SDS011;57850;52.922;6.256;2022-12-07T02:11:46;6.27;;;1.87;;
12467;SDS011;57850;52.922;6.256;2022-12-07T02:14:13;3.97;;;1.40;;
12467;SDS011;57850;52.922;6.256;2022-12-07T02:16:42;5.13;;;1.53;;
12467;SDS011;57850;52.922;6.256;2022-12-07T02:22:11;4.10;;;1.50;;
12467;SDS011;57850;52.922;6.256;2022-12-07T02:24:56;4.73;;;1.20;;
12467;SDS011;57850;52.922;6.256;2022-12-07T02:27:36;4.60;;;1.20;;
12467;SDS011;57850;52.922;6.256;2022-12-07T02:30:09;4.87;;;1.37;;
12467;SDS011;57850;52.922;6.256;2022-12-07T02:32:40;6.33;;;1.30;;
12467;SDS011;57850;52.922;6.256;2022-12-07T02:35:11;5.03;;;1.50;;
12467;SDS011;57850;52.922;6.256;2022-12-07T02:37:45;6.63;;;1.37;;
12467;SDS011;57850;52.922;6.256;2022-12-07T02:40:21;9.37;;;1.90;;
12467;SDS011;57850;52.922;6.256;2022-12-07T02:42:53;6.60;;;1.30;;
12467;SDS011;57850;52.922;6.256;2022-12-07T02:45:26;7.00;;;1.37;;
12467;SDS011;57850;52.922;6.256;2022-12-07T02:47:56;6.60;;;1.40;;
12467;SDS011;57850;52.922;6.256;2022-12-07T02:50:26;14.17;;;1.60;;
12467;SDS011;57850;52.922;6.256;2022-12-07T02:52:54;11.77;;;1.60;;
12467;SDS011;57850;52.922;6.256;2022-12-07T02:55:25;6.47;;;1.53;;
12467;SDS011;57850;52.922;6.256;2022-12-07T02:58:00;5.37;;;1.50;;
12467;SDS011;57850;52.922;6.256;2022-12-07T03:00:44;3.43;;;1.10;;
12467;SDS011;57850;52.922;6.256;2022-12-07T03:03:18;3.47;;;1.23;;
12467;SDS011;57850;52.922;6.256;2022-12-07T03:05:49;3.67;;;1.33;;
12467;SDS011;57850;52.922;6.256;2022-12-07T03:08:28;4.70;;;1.23;;
12467;SDS011;57850;52.922;6.256;2022-12-07T03:11:03;3.33;;;1.37;;
12467;SDS011;57850;52.922;6.256;2022-12-07T03:13:33;3.97;;;1.10;;
12467;SDS011;57850;52.922;6.256;2022-12-07T03:16:08;4.30;;;1.13;;
12467;SDS011;57850;52.922;6.256;2022-12-07T03:18:40;6.23;;;1.27;;
12467;SDS011;57850;52.922;6.256;2022-12-07T03:21:13;6.77;;;1.30;;
12467;SDS011;57850;52.922;6.256;2022-12-07T03:23:44;3.80;;;1.00;;
12467;SDS011;57850;52.922;6.256;2022-12-07T03:26:15;5.53;;;1.30;;
12467;SDS011;57850;52.922;6.256;2022-12-07T03:28:45;4.27;;;1.10;;
12467;SDS011;57850;52.922;6.256;2022-12-07T03:31:17;4.47;;;1.40;;
12467;SDS011;57850;52.922;6.256;2022-12-07T03:33:49;8.77;;;1.47;;
12467;SDS011;57850;52.922;6.256;2022-12-07T03:36:23;2.03;;;1.20;;
12467;SDS011;57850;52.922;6.256;2022-12-07T03:38:55;5.83;;;1.33;;
12467;SDS011;57850;52.922;6.256;2022-12-07T03:41:30;6.23;;;1.33;;
12467;SDS011;57850;52.922;6.256;2022-12-07T03:43:58;12.47;;;1.73;;
12467;SDS011;57850;52.922;6.256;2022-12-07T03:46:31;4.07;;;1.23;;
12467;SDS011;57850;52.922;6.256;2022-12-07T03:49:05;8.20;;;1.97;;
12467;SDS011;57850;52.922;6.256;2022-12-07T03:51:37;4.20;;;1.33;;
12467;SDS011;57850;52.922;6.256;2022-12-07T03:54:10;6.23;;;1.47;;
12467;SDS011;57850;52.922;6.256;2022-12-07T03:56:41;3.67;;;1.30;;
12467;SDS011;57850;52.922;6.256;2022-12-07T03:59:11;4.63;;;1.30;;
12467;SDS011;57850;52.922;6.256;2022-12-07T04:01:42;8.33;;;1.40;;
12467;SDS011;57850;52.922;6.256;2022-12-07T04:04:09;8.97;;;1.80;;
12467;SDS011;57850;52.922;6.256;2022-12-07T04:06:35;6.83;;;1.30;;
12467;SDS011;57850;52.922;6.256;2022-12-07T04:09:02;8.10;;;1.67;;
12467;SDS011;57850;52.922;6.256;2022-12-07T04:11:29;6.40;;;1.70;;
12467;SDS011;57850;52.922;6.256;2022-12-07T04:13:55;5.27;;;1.37;;
12467;SDS011;57850;52.922;6.256;2022-12-07T04:16:40;8.03;;;2.10;;
12467;SDS011;57850;52.922;6.256;2022-12-07T04:19:07;4.77;;;1.37;;
12467;SDS011;57850;52.922;6.256;2022-12-07T04:21:34;6.53;;;1.50;;
12467;SDS011;57850;52.922;6.256;2022-12-07T04:24:00;12.47;;;1.40;;
12467;SDS011;57850;52.922;6.256;2022-12-07T04:26:28;6.00;;;1.13;;
12467;SDS011;57850;52.922;6.256;2022-12-07T04:28:54;6.10;;;1.33;;
12467;SDS011;57850;52.922;6.256;2022-12-07T04:31:21;9.43;;;1.90;;
12467;SDS011;57850;52.922;6.256;2022-12-07T04:33:49;9.17;;;2.17;;
12467;SDS011;57850;52.922;6.256;2022-12-07T04:36:15;3.37;;;1.27;;
12467;SDS011;57850;52.922;6.256;2022-12-07T04:38:42;6.37;;;1.50;;
12467;SDS011;57850;52.922;6.256;2022-12-07T04:41:09;6.73;;;1.90;;
12467;SDS011;57850;52.922;6.256;2022-12-07T04:43:35;7.93;;;1.37;;
12467;SDS011;57850;52.922;6.256;2022-12-07T04:46:02;8.33;;;1.90;;
12467;SDS011;57850;52.922;6.256;2022-12-07T04:48:29;5.97;;;1.50;;
12467;SDS011;57850;52.922;6.256;2022-12-07T04:50:57;3.97;;;1.20;;
12467;SDS011;57850;52.922;6.256;2022-12-07T04:53:23;7.43;;;1.47;;
12467;SDS011;57850;52.922;6.256;2022-12-07T04:55:50;5.97;;;1.40;;
12467;SDS011;57850;52.922;6.256;2022-12-07T04:58:17;9.53;;;1.93;;
12467;SDS011;57850;52.922;6.256;2022-12-07T05:00:43;10.50;;;1.50;;
12467;SDS011;57850;52.922;6.256;2022-12-07T05:03:10;6.27;;;1.40;;
12467;SDS011;57850;52.922;6.256;2022-12-07T05:05:39;9.60;;;2.53;;
12467;SDS011;57850;52.922;6.256;2022-12-07T05:08:08;11.97;;;1.43;;
12467;SDS011;57850;52.922;6.256;2022-12-07T05:10:34;3.73;;;1.20;;
12467;SDS011;57850;52.922;6.256;2022-12-07T05:13:01;7.63;;;1.30;;
12467;SDS011;57850;52.922;6.256;2022-12-07T05:15:27;5.17;;;1.37;;
12467;SDS011;57850;52.922;6.256;2022-12-07T05:17:55;6.07;;;1.37;;
12467;SDS011;57850;52.922;6.256;2022-12-07T05:20:22;3.83;;;1.37;;
12467;SDS011;57850;52.922;6.256;2022-12-07T05:22:48;4.40;;;1.30;;
12467;SDS011;57850;52.922;6.256;2022-12-07T05:25:16;7.97;;;1.67;;
12467;SDS011;57850;52.922;6.256;2022-12-07T05:27:43;4.17;;;1.03;;
12467;SDS011;57850;52.922;6.256;2022-12-07T05:30:10;6.83;;;1.73;;
12467;SDS011;57850;52.922;6.256;2022-12-07T05:32:37;10.13;;;1.40;;
12467;SDS011;57850;52.922;6.256;2022-12-07T05:35:04;7.43;;;1.47;;
12467;SDS011;57850;52.922;6.256;2022-12-07T05:37:31;4.83;;;1.60;;
12467;SDS011;57850;52.922;6.256;2022-12-07T05:39:58;7.77;;;1.20;;
12467;SDS011;57850;52.922;6.256;2022-12-07T05:42:27;10.33;;;1.60;;
12467;SDS011;57850;52.922;6.256;2022-12-07T05:44:54;2.30;;;1.50;;
12467;SDS011;57850;52.922;6.256;2022-12-07T05:47:21;7.93;;;1.87;;
12467;SDS011;57850;52.922;6.256;2022-12-07T05:49:48;6.20;;;1.23;;
12467;SDS011;57850;52.922;6.256;2022-12-07T05:52:15;5.90;;;1.40;;
12467;SDS011;57850;52.922;6.256;2022-12-07T05:54:42;10.43;;;1.77;;
12467;SDS011;57850;52.922;6.256;2022-12-07T05:57:12;6.90;;;1.40;;
12467;SDS011;57850;52.922;6.256;2022-12-07T05:59:40;6.13;;;1.60;;
12467;SDS011;57850;52.922;6.256;2022-12-07T06:02:07;9.97;;;2.33;;
12467;SDS011;57850;52.922;6.256;2022-12-07T06:04:35;4.30;;;1.87;;
12467;SDS011;57850;52.922;6.256;2022-12-07T06:07:03;4.97;;;1.60;;
12467;SDS011;57850;52.922;6.256;2022-12-07T06:09:30;5.60;;;1.70;;
12467;SDS011;57850;52.922;6.256;2022-12-07T06:11:57;12.00;;;2.10;;
12467;SDS011;57850;52.922;6.256;2022-12-07T06:14:46;8.00;;;1.60;;
12467;SDS011;57850;52.922;6.256;2022-12-07T06:17:13;6.67;;;1.87;;
12467;SDS011;57850;52.922;6.256;2022-12-07T06:19:40;7.10;;;1.73;;
12467;SDS011;57850;52.922;6.256;2022-12-07T06:22:07;8.03;;;1.40;;
12467;SDS011;57850;52.922;6.256;2022-12-07T06:24:35;8.50;;;1.83;;
12467;SDS011;57850;52.922;6.256;2022-12-07T06:27:02;5.27;;;1.67;;
12467;SDS011;57850;52.922;6.256;2022-12-07T06:29:29;4.27;;;1.60;;
12467;SDS011;57850;52.922;6.256;2022-12-07T06:31:57;6.43;;;1.53;;
12467;SDS011;57850;52.922;6.256;2022-12-07T06:34:25;5.67;;;1.50;;
12467;SDS011;57850;52.922;6.256;2022-12-07T06:36:52;4.27;;;1.50;;
12467;SDS011;57850;52.922;6.256;2022-12-07T06:39:20;7.20;;;1.50;;
12467;SDS011;57850;52.922;6.256;2022-12-07T06:41:48;3.80;;;1.33;;
12467;SDS011;57850;52.922;6.256;2022-12-07T06:44:14;10.93;;;2.17;;
12467;SDS011;57850;52.922;6.256;2022-12-07T06:46:41;2.23;;;1.13;;
12467;SDS011;57850;52.922;6.256;2022-12-07T06:49:09;7.00;;;1.43;;
12467;SDS011;57850;52.922;6.256;2022-12-07T06:51:35;6.40;;;1.37;;
12467;SDS011;57850;52.922;6.256;2022-12-07T06:54:06;8.13;;;1.70;;
12467;SDS011;57850;52.922;6.256;2022-12-07T06:56:33;6.20;;;2.40;;
12467;SDS011;57850;52.922;6.256;2022-12-07T06:59:00;10.17;;;2.60;;
12467;SDS011;57850;52.922;6.256;2022-12-07T07:01:26;7.77;;;2.40;;
12467;SDS011;57850;52.922;6.256;2022-12-07T07:03:53;8.03;;;2.03;;
12467;SDS011;57850;52.922;6.256;2022-12-07T07:06:20;9.73;;;2.50;;
12467;SDS011;57850;52.922;6.256;2022-12-07T07:08:47;10.27;;;2.50;;
12467;SDS011;57850;52.922;6.256;2022-12-07T07:11:13;7.83;;;2.37;;
12467;SDS011;57850;52.922;6.256;2022-12-07T07:13:40;8.33;;;2.57;;
12467;SDS011;57850;52.922;6.256;2022-12-07T07:16:07;5.17;;;2.40;;
12467;SDS011;57850;52.922;6.256;2022-12-07T07:18:33;5.90;;;2.63;;
12467;SDS011;57850;52.922;6.256;2022-12-07T07:21:00;6.83;;;2.30;;
12467;SDS011;57850;52.922;6.256;2022-12-07T07:23:28;7.50;;;1.73;;
12467;SDS011;57850;52.922;6.256;2022-12-07T07:25:56;7.00;;;1.90;;
12467;SDS011;57850;52.922;6.256;2022-12-07T07:28:22;9.00;;;2.33;;
12467;SDS011;57850;52.922;6.256;2022-12-07T07:30:49;9.00;;;2.77;;
12467;SDS011;57850;52.922;6.256;2022-12-07T07:33:16;6.60;;;2.00;;
12467;SDS011;57850;52.922;6.256;2022-12-07T07:35:42;12.97;;;2.47;;
12467;SDS011;57850;52.922;6.256;2022-12-07T07:38:09;7.03;;;3.53;;
12467;SDS011;57850;52.922;6.256;2022-12-07T07:40:37;13.87;;;2.53;;
12467;SDS011;57850;52.922;6.256;2022-12-07T07:43:03;5.17;;;1.60;;
12467;SDS011;57850;52.922;6.256;2022-12-07T07:45:30;6.67;;;1.87;;
12467;SDS011;57850;52.922;6.256;2022-12-07T07:47:56;10.60;;;2.07;;
12467;SDS011;57850;52.922;6.256;2022-12-07T07:50:23;8.37;;;2.40;;
12467;SDS011;57850;52.922;6.256;2022-12-07T07:52:49;7.53;;;1.50;;
12467;SDS011;57850;52.922;6.256;2022-12-07T07:55:17;6.10;;;1.70;;
12467;SDS011;57850;52.922;6.256;2022-12-07T07:57:45;5.43;;;1.73;;
12467;SDS011;57850;52.922;6.256;2022-12-07T08:00:12;7.80;;;1.83;;
12467;SDS011;57850;52.922;6.256;2022-12-07T08:02:41;8.27;;;1.73;;
12467;SDS011;57850;52.922;6.256;2022-12-07T08:05:08;9.97;;;1.80;;
12467;SDS011;57850;52.922;6.256;2022-12-07T08:07:36;8.27;;;1.93;;
12467;SDS011;57850;52.922;6.256;2022-12-07T08:10:03;5.97;;;1.80;;
12467;SDS011;57850;52.922;6.256;2022-12-07T08:12:31;8.23;;;1.60;;
12467;SDS011;57850;52.922;6.256;2022-12-07T08:15:02;9.70;;;2.53;;
12467;SDS011;57850;52.922;6.256;2022-12-07T08:17:30;7.70;;;3.07;;
12467;SDS011;57850;52.922;6.256;2022-12-07T08:19:57;18.23;;;8.40;;
12467;SDS011;57850;52.922;6.256;2022-12-07T08:22:23;21.20;;;8.80;;
12467;SDS011;57850;52.922;6.256;2022-12-07T08:24:50;20.60;;;10.17;;
12467;SDS011;57850;52.922;6.256;2022-12-07T08:27:16;18.07;;;6.80;;
12467;SDS011;57850;52.922;6.256;2022-12-07T08:29:43;9.73;;;5.37;;
12467;SDS011;57850;52.922;6.256;2022-12-07T08:32:10;7.23;;;2.97;;
12467;SDS011;57850;52.922;6.256;2022-12-07T08:34:37;9.33;;;2.60;;
12467;SDS011;57850;52.922;6.256;2022-12-07T08:37:04;10.83;;;2.53;;
12467;SDS011;57850;52.922;6.256;2022-12-07T08:39:30;11.27;;;2.70;;
12467;SDS011;57850;52.922;6.256;2022-12-07T08:41:57;9.33;;;2.70;;
12467;SDS011;57850;52.922;6.256;2022-12-07T08:44:23;9.40;;;2.67;;
12467;SDS011;57850;52.922;6.256;2022-12-07T08:46:50;11.50;;;2.53;;
12467;SDS011;57850;52.922;6.256;2022-12-07T08:49:22;5.50;;;2.07;;
12467;SDS011;57850;52.922;6.256;2022-12-07T08:51:51;10.07;;;2.20;;
12467;SDS011;57850;52.922;6.256;2022-12-07T08:54:18;6.53;;;2.33;;
12467;SDS011;57850;52.922;6.256;2022-12-07T08:56:45;7.63;;;2.67;;
12467;SDS011;57850;52.922;6.256;2022-12-07T08:59:14;9.40;;;2.97;;
12467;SDS011;57850;52.922;6.256;2022-12-07T09:01:43;8.43;;;2.40;;
12467;SDS011;57850;52.922;6.256;2022-12-07T09:04:09;9.87;;;3.17;;
12467;SDS011;57850;52.922;6.256;2022-12-07T09:06:37;6.77;;;3.10;;
12467;SDS011;57850;52.922;6.256;2022-12-07T09:09:04;9.93;;;2.40;;
12467;SDS011;57850;52.922;6.256;2022-12-07T09:11:32;8.90;;;2.57;;
12467;SDS011;57850;52.922;6.256;2022-12-07T09:13:58;9.37;;;2.87;;
12467;SDS011;57850;52.922;6.256;2022-12-07T09:16:26;11.57;;;3.88;;
12467;SDS011;57850;52.922;6.256;2022-12-07T09:18:53;11.20;;;2.05;;
12467;SDS011;57850;52.922;6.256;2022-12-07T09:21:19;6.63;;;2.70;;
12467;SDS011;57850;52.922;6.256;2022-12-07T09:23:47;12.18;;;4.30;;
12467;SDS011;57850;52.922;6.256;2022-12-07T09:26:14;10.20;;;3.17;;
12467;SDS011;57850;52.922;6.256;2022-12-07T09:28:40;9.52;;;3.13;;
12467;SDS011;57850;52.922;6.256;2022-12-07T09:31:08;7.97;;;4.57;;
12467;SDS011;57850;52.922;6.256;2022-12-07T09:33:34;6.30;;;4.55;;
12467;SDS011;57850;52.922;6.256;2022-12-07T09:36:01;6.45;;;2.70;;
12467;SDS011;57850;52.922;6.256;2022-12-07T09:38:30;5.38;;;2.40;;
12467;SDS011;57850;52.922;6.256;2022-12-07T09:41:03;5.10;;;2.22;;
12467;SDS011;57850;52.922;6.256;2022-12-07T09:43:31;6.22;;;2.10;;
12467;SDS011;57850;52.922;6.256;2022-12-07T09:46:00;5.07;;;1.92;;
12467;SDS011;57850;52.922;6.256;2022-12-07T09:48:29;6.68;;;1.92;;
12467;SDS011;57850;52.922;6.256;2022-12-07T09:50:57;8.75;;;2.05;;
12467;SDS011;57850;52.922;6.256;2022-12-07T09:53:26;7.03;;;2.53;;
12467;SDS011;57850;52.922;6.256;2022-12-07T09:55:56;6.07;;;1.67;;
12467;SDS011;57850;52.922;6.256;2022-12-07T09:58:25;4.82;;;1.65;;
12467;SDS011;57850;52.922;6.256;2022-12-07T10:00:56;6.00;;;2.25;;
12467;SDS011;57850;52.922;6.256;2022-12-07T10:03:26;6.50;;;1.95;;
12467;SDS011;57850;52.922;6.256;2022-12-07T10:05:53;8.05;;;1.90;;
12467;SDS011;57850;52.922;6.256;2022-12-07T10:08:20;8.25;;;2.47;;
12467;SDS011;57850;52.922;6.256;2022-12-07T10:10:49;4.28;;;2.25;;
12467;SDS011;57850;52.922;6.256;2022-12-07T10:13:18;8.88;;;2.95;;
12467;SDS011;57850;52.922;6.256;2022-12-07T10:15:49;6.05;;;2.47;;
12467;SDS011;57850;52.922;6.256;2022-12-07T10:18:19;5.38;;;2.03;;
12467;SDS011;57850;52.922;6.256;2022-12-07T10:21:00;6.68;;;2.10;;
12467;SDS011;57850;52.922;6.256;2022-12-07T10:23:29;4.40;;;1.98;;
12467;SDS011;57850;52.922;6.256;2022-12-07T10:25:56;8.10;;;2.22;;
12467;SDS011;57850;52.922;6.256;2022-12-07T10:28:23;6.35;;;2.15;;
12467;SDS011;57850;52.922;6.256;2022-12-07T10:30:52;6.88;;;2.28;;
12467;SDS011;57850;52.922;6.256;2022-12-07T10:33:28;6.05;;;1.73;;
12467;SDS011;57850;52.922;6.256;2022-12-07T10:36:01;9.10;;;2.70;;
12467;SDS011;57850;52.922;6.256;2022-12-07T10:38:44;4.95;;;2.17;;
12467;SDS011;57850;52.922;6.256;2022-12-07T10:41:12;7.43;;;2.45;;
12467;SDS011;57850;52.922;6.256;2022-12-07T10:43:43;5.00;;;1.83;;
12467;SDS011;57850;52.922;6.256;2022-12-07T10:46:20;4.18;;;1.70;;
12467;SDS011;57850;52.922;6.256;2022-12-07T10:49:01;4.82;;;1.63;;
12467;SDS011;57850;52.922;6.256;2022-12-07T10:51:38;4.80;;;2.03;;
12467;SDS011;57850;52.922;6.256;2022-12-07T10:54:12;4.70;;;1.70;;
12467;SDS011;57850;52.922;6.256;2022-12-07T10:56:54;5.55;;;1.90;;
12467;SDS011;57850;52.922;6.256;2022-12-07T11:02:33;5.47;;;1.92;;
12467;SDS011;57850;52.922;6.256;2022-12-07T11:05:17;5.35;;;2.03;;
12467;SDS011;57850;52.922;6.256;2022-12-07T11:07:52;5.53;;;2.00;;
12467;SDS011;57850;52.922;6.256;2022-12-07T11:10:36;2.92;;;1.80;;
12467;SDS011;57850;52.922;6.256;2022-12-07T11:13:15;4.90;;;1.85;;
12467;SDS011;57850;52.922;6.256;2022-12-07T11:16:02;5.00;;;1.88;;
12467;SDS011;57850;52.922;6.256;2022-12-07T11:18:45;7.30;;;2.03;;
12467;SDS011;57850;52.922;6.256;2022-12-07T11:21:24;4.25;;;1.70;;
12467;SDS011;57850;52.922;6.256;2022-12-07T11:23:56;7.32;;;2.05;;
12467;SDS011;57850;52.922;6.256;2022-12-07T11:26:34;7.15;;;1.80;;
12467;SDS011;57850;52.922;6.256;2022-12-07T11:29:19;8.63;;;1.80;;
12467;SDS011;57850;52.922;6.256;2022-12-07T11:31:58;8.52;;;2.38;;
12467;SDS011;57850;52.922;6.256;2022-12-07T11:34:36;7.85;;;1.75;;
12467;SDS011;57850;52.922;6.256;2022-12-07T11:37:11;7.38;;;2.10;;
12467;SDS011;57850;52.922;6.256;2022-12-07T11:39:41;7.18;;;2.00;;
12467;SDS011;57850;52.922;6.256;2022-12-07T11:42:13;7.97;;;1.65;;
12467;SDS011;57850;52.922;6.256;2022-12-07T11:44:47;4.80;;;1.77;;
12467;SDS011;57850;52.922;6.256;2022-12-07T11:47:20;4.97;;;1.88;;
12467;SDS011;57850;52.922;6.256;2022-12-07T11:49:56;7.88;;;2.05;;
12467;SDS011;57850;52.922;6.256;2022-12-07T11:52:32;7.63;;;1.92;;
12467;SDS011;57850;52.922;6.256;2022-12-07T11:55:14;6.57;;;2.03;;
12467;SDS011;57850;52.922;6.256;2022-12-07T11:57:46;5.22;;;1.50;;
12467;SDS011;57850;52.922;6.256;2022-12-07T12:00:20;4.45;;;1.50;;
12467;SDS011;57850;52.922;6.256;2022-12-07T12:02:49;6.95;;;1.90;;
12467;SDS011;57850;52.922;6.256;2022-12-07T12:05:24;6.15;;;1.55;;
12467;SDS011;57850;52.922;6.256;2022-12-07T12:07:53;3.15;;;1.17;;
12467;SDS011;57850;52.922;6.256;2022-12-07T12:10:27;6.43;;;1.60;;
12467;SDS011;57850;52.922;6.256;2022-12-07T12:13:12;5.25;;;1.90;;
12467;SDS011;57850;52.922;6.256;2022-12-07T12:15:54;4.63;;;1.73;;
12467;SDS011;57850;52.922;6.256;2022-12-07T12:18:35;4.68;;;1.38;;
12467;SDS011;57850;52.922;6.256;2022-12-07T12:21:13;4.03;;;1.70;;
12467;SDS011;57850;52.922;6.256;2022-12-07T12:23:44;8.07;;;2.10;;
12467;SDS011;57850;52.922;6.256;2022-12-07T12:26:16;6.68;;;2.42;;
12467;SDS011;57850;52.922;6.256;2022-12-07T12:28:50;3.90;;;1.77;;
12467;SDS011;57850;52.922;6.256;2022-12-07T12:31:36;4.15;;;1.45;;
12467;SDS011;57850;52.922;6.256;2022-12-07T12:37:17;5.63;;;1.58;;
12467;SDS011;57850;52.922;6.256;2022-12-07T12:58:43;6.97;;;1.60;;
12467;SDS011;57850;52.922;6.256;2022-12-07T13:04:17;2.10;;;1.25;;
12467;SDS011;57850;52.922;6.256;2022-12-07T13:06:56;6.20;;;4.35;;
12467;SDS011;57850;52.922;6.256;2022-12-07T13:09:24;5.65;;;4.18;;
12467;SDS011;57850;52.922;6.256;2022-12-07T13:11:57;3.47;;;2.65;;
12467;SDS011;57850;52.922;6.256;2022-12-07T13:14:51;2.88;;;1.48;;
12467;SDS011;57850;52.922;6.256;2022-12-07T13:20:46;5.65;;;1.38;;
12467;SDS011;57850;52.922;6.256;2022-12-07T13:23:16;2.97;;;1.85;;
12467;SDS011;57850;52.922;6.256;2022-12-07T13:25:48;3.55;;;1.30;;
12467;SDS011;57850;52.922;6.256;2022-12-07T13:28:20;2.60;;;0.98;;
12467;SDS011;57850;52.922;6.256;2022-12-07T13:31:01;5.32;;;1.95;;
12467;SDS011;57850;52.922;6.256;2022-12-07T13:33:36;3.67;;;1.13;;
12467;SDS011;57850;52.922;6.256;2022-12-07T13:36:02;4.22;;;1.17;;
12467;SDS011;57850;52.922;6.256;2022-12-07T13:38:30;1.98;;;0.98;;
12467;SDS011;57850;52.922;6.256;2022-12-07T13:41:04;3.10;;;1.00;;
12467;SDS011;57850;52.922;6.256;2022-12-07T13:43:46;4.38;;;1.27;;
12467;SDS011;57850;52.922;6.256;2022-12-07T13:46:23;5.25;;;1.25;;
12467;SDS011;57850;52.922;6.256;2022-12-07T13:48:55;3.70;;;1.20;;
12467;SDS011;57850;52.922;6.256;2022-12-07T13:51:22;2.65;;;0.90;;
12467;SDS011;57850;52.922;6.256;2022-12-07T13:53:51;4.50;;;1.35;;
12467;SDS011;57850;52.922;6.256;2022-12-07T13:56:22;3.17;;;1.13;;
12467;SDS011;57850;52.922;6.256;2022-12-07T13:59:00;5.35;;;1.30;;
12467;SDS011;57850;52.922;6.256;2022-12-07T14:01:30;3.10;;;1.38;;
12467;SDS011;57850;52.922;6.256;2022-12-07T14:06:53;4.13;;;1.20;;
12467;SDS011;57850;52.922;6.256;2022-12-07T14:09:21;4.25;;;1.38;;
12467;SDS011;57850;52.922;6.256;2022-12-07T14:11:49;4.38;;;1.27;;
12467;SDS011;57850;52.922;6.256;2022-12-07T14:14:18;3.78;;;1.13;;
12467;SDS011;57850;52.922;6.256;2022-12-07T14:16:59;6.75;;;1.20;;
12467;SDS011;57850;52.922;6.256;2022-12-07T14:19:41;2.97;;;1.20;;
12467;SDS011;57850;52.922;6.256;2022-12-07T14:22:20;6.75;;;1.10;;
12467;SDS011;57850;52.922;6.256;2022-12-07T14:24:49;5.15;;;1.40;;
12467;SDS011;57850;52.922;6.256;2022-12-07T14:27:16;3.15;;;1.15;;
12467;SDS011;57850;52.922;6.256;2022-12-07T14:29:45;2.88;;;1.30;;
12467;SDS011;57850;52.922;6.256;2022-12-07T14:32:20;2.88;;;1.27;;
12467;SDS011;57850;52.922;6.256;2022-12-07T14:34:54;6.15;;;2.38;;
12467;SDS011;57850;52.922;6.256;2022-12-07T14:37:21;8.65;;;1.70;;
12467;SDS011;57850;52.922;6.256;2022-12-07T14:39:48;4.22;;;1.77;;
12467;SDS011;57850;52.922;6.256;2022-12-07T14:42:14;5.05;;;1.48;;
12467;SDS011;57850;52.922;6.256;2022-12-07T14:44:41;3.53;;;1.35;;
12467;SDS011;57850;52.922;6.256;2022-12-07T14:47:08;8.68;;;1.60;;
12467;SDS011;57850;52.922;6.256;2022-12-07T14:49:37;4.38;;;1.58;;
12467;SDS011;57850;52.922;6.256;2022-12-07T14:52:04;5.10;;;1.27;;
12467;SDS011;57850;52.922;6.256;2022-12-07T14:54:31;7.38;;;1.30;;
12467;SDS011;57850;52.922;6.256;2022-12-07T14:56:58;3.47;;;1.20;;
12467;SDS011;57850;52.922;6.256;2022-12-07T14:59:26;8.40;;;1.60;;
12467;SDS011;57850;52.922;6.256;2022-12-07T15:01:53;4.35;;;1.48;;
12467;SDS011;57850;52.922;6.256;2022-12-07T15:04:19;2.75;;;1.27;;
12467;SDS011;57850;52.922;6.256;2022-12-07T15:06:55;3.13;;;1.42;;
12467;SDS011;57850;52.922;6.256;2022-12-07T15:09:23;6.85;;;1.33;;
12467;SDS011;57850;52.922;6.256;2022-12-07T15:11:49;3.40;;;1.40;;
12467;SDS011;57850;52.922;6.256;2022-12-07T15:14:16;1.85;;;1.00;;
12467;SDS011;57850;52.922;6.256;2022-12-07T15:16:42;1.65;;;1.08;;
12467;SDS011;57850;52.922;6.256;2022-12-07T15:19:13;3.83;;;1.20;;
12467;SDS011;57850;52.922;6.256;2022-12-07T15:21:40;4.57;;;1.35;;
12467;SDS011;57850;52.922;6.256;2022-12-07T15:24:09;3.50;;;1.55;;
12467;SDS011;57850;52.922;6.256;2022-12-07T15:26:36;2.17;;;1.30;;
12467;SDS011;57850;52.922;6.256;2022-12-07T15:29:03;2.75;;;1.60;;
12467;SDS011;57850;52.922;6.256;2022-12-07T15:31:30;4.65;;;1.55;;
12467;SDS011;57850;52.922;6.256;2022-12-07T15:33:56;3.35;;;1.50;;
12467;SDS011;57850;52.922;6.256;2022-12-07T15:36:23;2.20;;;1.20;;
12467;SDS011;57850;52.922;6.256;2022-12-07T15:38:52;2.85;;;1.10;;